createdAt,value
2022-10-02T00:01:05.634Z,95.83
2022-10-02T00:03:38.905Z,94.86
2022-10-02T00:06:13.675Z,95.05
2022-10-02T00:08:41.620Z,95.41
2022-10-02T00:11:16.407Z,95.47
2022-10-02T00:13:50.055Z,95.62
2022-10-02T00:16:37.201Z,95.79
2022-10-02T00:19:04.418Z,95.77
2022-10-02T00:21:49.006Z,95.47
2022-10-02T00:24:22.059Z,95.26
2022-10-02T00:26:57.095Z,95.37
2022-10-02T00:29:32.071Z,95.25
2022-10-02T00:32:24.620Z,95.35
2022-10-02T00:35:25.588Z,95.76
2022-10-02T00:38:24.501Z,95.40
2022-10-02T00:40:57.350Z,95.48
2022-10-02T00:43:46.717Z,95.43
2022-10-02T00:46:13.711Z,95.23
2022-10-02T00:49:02.683Z,94.99
2022-10-02T00:51:48.110Z,95.24
2022-10-02T00:54:40.191Z,95.38
2022-10-02T00:57:42.779Z,95.49
2022-10-02T01:00:11.443Z,95.62
2022-10-02T01:02:44.841Z,95.02
2022-10-02T01:05:11.711Z,94.03
2022-10-02T01:07:39.960Z,93.67
2022-10-02T01:10:06.795Z,93.47
2022-10-02T01:12:33.287Z,93.58
2022-10-02T01:15:00.131Z,93.55
2022-10-02T01:17:34.178Z,93.42
2022-10-02T01:20:04.561Z,93.58
2022-10-02T01:22:36.770Z,93.47
2022-10-02T01:25:05.474Z,93.19
2022-10-02T01:27:35.514Z,93.30
2022-10-02T01:30:10.323Z,93.43
2022-10-02T01:32:40.474Z,93.44
2022-10-02T01:35:07.809Z,93.42
2022-10-02T01:37:36.474Z,93.36
2022-10-02T01:40:05.931Z,93.33
2022-10-02T01:42:34.124Z,93.27
2022-10-02T01:45:00.915Z,93.25
2022-10-02T01:47:36.773Z,93.23
2022-10-02T01:50:06.811Z,93.22
2022-10-02T01:52:33.293Z,93.23
2022-10-02T01:54:59.759Z,93.28
2022-10-02T01:57:40.369Z,93.31
2022-10-02T02:00:09.865Z,93.37
2022-10-02T02:02:56.792Z,93.43
2022-10-02T02:05:38.959Z,93.45
2022-10-02T02:08:14.009Z,93.50
2022-10-02T02:10:45.169Z,93.28
2022-10-02T02:13:15.219Z,93.29
2022-10-02T02:16:08.149Z,93.33
2022-10-02T02:18:48.123Z,93.42
2022-10-02T02:21:28.469Z,93.36
2022-10-02T02:23:56.582Z,93.22
2022-10-02T02:26:24.710Z,93.23
2022-10-02T02:28:53.662Z,93.25
2022-10-02T02:31:27.330Z,93.31
2022-10-02T02:33:59.534Z,93.47
2022-10-02T02:36:29.419Z,93.20
2022-10-02T02:38:59.968Z,93.43
2022-10-02T02:41:28.215Z,93.36
2022-10-02T02:44:01.865Z,93.27
2022-10-02T02:46:33.486Z,93.30
2022-10-02T02:49:05.031Z,93.41
2022-10-02T02:51:35.535Z,93.36
2022-10-02T02:54:05.385Z,93.51
2022-10-02T02:56:33.250Z,93.62
2022-10-02T02:59:02.225Z,93.47
2022-10-02T03:01:29.339Z,93.55
2022-10-02T03:03:56.212Z,93.70
2022-10-02T03:06:31.559Z,93.65
2022-10-02T03:08:59.850Z,93.52
2022-10-02T03:11:38.308Z,92.94
2022-10-02T03:14:29.936Z,93.10
2022-10-02T03:17:07.177Z,93.07
2022-10-02T03:19:37.214Z,92.97
2022-10-02T03:22:09.851Z,92.82
2022-10-02T03:24:56.978Z,93.02
2022-10-02T03:27:29.284Z,92.83
2022-10-02T03:30:07.214Z,92.78
2022-10-02T03:32:34.390Z,93.02
2022-10-02T03:35:01.653Z,92.90
2022-10-02T03:37:28.928Z,92.97
2022-10-02T03:40:00.289Z,92.95
2022-10-02T03:42:29.168Z,92.72
2022-10-02T03:44:55.657Z,92.52
2022-10-02T03:47:22.138Z,92.45
2022-10-02T03:49:49.127Z,92.65
2022-10-02T03:52:17.095Z,92.70
2022-10-02T03:54:43.638Z,92.72
2022-10-02T03:57:14.035Z,92.66
2022-10-02T03:59:50.863Z,92.63
2022-10-02T04:02:40.071Z,92.23
2022-10-02T04:05:10.163Z,92.15
2022-10-02T04:07:41.989Z,92.05
2022-10-02T04:10:21.123Z,92.15
2022-10-02T04:12:50.020Z,92.11
2022-10-02T04:15:21.412Z,92.17
2022-10-02T04:17:58.218Z,92.22
2022-10-02T04:20:28.410Z,92.28
2022-10-02T04:22:55.995Z,92.32
2022-10-02T04:25:25.865Z,92.32
2022-10-02T04:28:03.647Z,92.39
2022-10-02T04:30:30.240Z,92.45
2022-10-02T04:32:58.236Z,92.47
2022-10-02T04:35:24.719Z,92.25
2022-10-02T04:37:59.895Z,92.20
2022-10-02T04:40:35.098Z,92.28
2022-10-02T04:43:10.889Z,92.40
2022-10-02T04:45:55.360Z,92.40
2022-10-02T04:48:40.727Z,92.43
2022-10-02T04:51:26.408Z,92.35
2022-10-02T04:53:59.286Z,92.28
2022-10-02T04:56:49.525Z,92.24
2022-10-02T04:59:34.029Z,92.27
2022-10-02T05:02:11.786Z,92.26
2022-10-02T05:04:56.864Z,92.29
2022-10-02T05:07:23.843Z,92.31
2022-10-02T05:10:01.777Z,92.32
2022-10-02T05:12:34.892Z,92.25
2022-10-02T05:15:10.222Z,92.20
2022-10-02T05:17:45.857Z,92.28
2022-10-02T05:20:24.127Z,92.33
2022-10-02T05:22:50.910Z,92.31
2022-10-02T05:25:36.322Z,92.32
2022-10-02T05:28:06.114Z,92.31
2022-10-02T05:30:53.323Z,92.39
2022-10-02T05:33:23.264Z,92.37
2022-10-02T05:36:10.353Z,92.52
2022-10-02T05:38:59.910Z,92.58
2022-10-02T05:41:45.527Z,92.61
2022-10-02T05:44:17.503Z,92.69
2022-10-02T05:46:46.595Z,92.49
2022-10-02T05:49:18.654Z,92.59
2022-10-02T05:52:04.214Z,92.58
2022-10-02T05:54:43.419Z,92.62
2022-10-02T05:57:09.991Z,92.39
2022-10-02T05:59:39.822Z,92.28
2022-10-02T06:02:13.727Z,92.19
2022-10-02T06:04:44.135Z,92.35
2022-10-02T06:07:14.253Z,92.48
2022-10-02T06:09:46.378Z,92.51
2022-10-02T06:12:26.543Z,92.61
2022-10-02T06:14:58.188Z,92.69
2022-10-02T06:17:27.502Z,92.78
2022-10-02T06:19:54.343Z,92.87
2022-10-02T06:22:34.404Z,92.74
2022-10-02T06:25:16.293Z,92.80
2022-10-02T06:27:48.392Z,92.90
2022-10-02T06:30:16.894Z,92.99
2022-10-02T06:33:02.215Z,93.04
2022-10-02T06:35:52.285Z,93.10
2022-10-02T06:38:48.690Z,93.11
2022-10-02T06:41:31.781Z,93.14
2022-10-02T06:44:08.107Z,93.19
2022-10-02T06:46:53.736Z,93.27
2022-10-02T06:49:26.348Z,93.34
2022-10-02T06:51:59.596Z,93.36
2022-10-02T06:54:29.101Z,93.40
2022-10-02T06:57:21.699Z,93.45
2022-10-02T06:59:55.066Z,93.49
2022-10-02T07:02:40.479Z,93.51
2022-10-02T07:05:22.058Z,93.54
2022-10-02T07:07:54.296Z,93.57
2022-10-02T07:10:29.787Z,93.62
2022-10-02T07:13:04.869Z,93.68
2022-10-02T07:15:37.540Z,93.64
2022-10-02T07:18:23.452Z,93.59
2022-10-02T07:20:50.545Z,93.58
2022-10-02T07:23:24.242Z,93.62
2022-10-02T07:25:50.831Z,93.40
2022-10-02T07:28:23.893Z,93.41
2022-10-02T07:30:56.367Z,93.44
2022-10-02T07:33:38.966Z,93.47
2022-10-02T07:36:10.843Z,93.56
2022-10-02T07:38:56.975Z,92.96
2022-10-02T07:41:32.555Z,93.20
2022-10-02T07:44:09.009Z,93.21
2022-10-02T07:46:54.873Z,93.17
2022-10-02T07:49:29.271Z,93.22
2022-10-02T07:52:00.768Z,93.28
2022-10-02T07:54:33.634Z,93.40
2022-10-02T07:57:07.681Z,93.26
2022-10-02T07:59:39.834Z,93.46
2022-10-02T08:02:08.087Z,93.33
2022-10-02T08:04:37.262Z,92.97
2022-10-02T08:07:04.788Z,93.00
2022-10-02T08:09:39.330Z,93.03
2022-10-02T08:12:12.543Z,93.16
2022-10-02T08:14:43.235Z,92.85
2022-10-02T08:17:16.013Z,92.76
2022-10-02T08:19:45.926Z,92.88
2022-10-02T08:22:21.784Z,93.02
2022-10-02T08:24:50.336Z,92.67
2022-10-02T08:27:24.257Z,92.74
2022-10-02T08:29:57.121Z,92.76
2022-10-02T08:32:25.495Z,92.78
2022-10-02T08:34:52.116Z,92.74
2022-10-02T08:37:29.392Z,92.99
2022-10-02T08:39:59.432Z,93.04
2022-10-02T08:42:45.718Z,93.06
2022-10-02T08:45:18.633Z,92.83
2022-10-02T08:48:00.733Z,92.94
2022-10-02T08:50:53.619Z,92.97
2022-10-02T08:53:26.355Z,93.03
2022-10-02T08:56:03.473Z,92.55
2022-10-02T08:58:47.658Z,92.57
2022-10-02T09:01:29.995Z,92.83
2022-10-02T09:03:59.328Z,92.93
2022-10-02T09:06:41.449Z,93.04
2022-10-02T09:09:08.055Z,93.12
2022-10-02T09:11:54.343Z,93.20
2022-10-02T09:14:39.286Z,93.26
2022-10-02T09:17:30.681Z,93.31
2022-10-02T09:20:00.130Z,93.30
2022-10-02T09:22:48.121Z,93.22
2022-10-02T09:25:31.517Z,93.21
2022-10-02T09:28:07.545Z,93.18
2022-10-02T09:30:37.290Z,93.23
2022-10-02T09:33:04.064Z,93.17
2022-10-02T09:35:36.508Z,93.12
2022-10-02T09:38:16.076Z,92.98
2022-10-02T09:41:02.150Z,92.97
2022-10-02T09:43:51.268Z,92.91
2022-10-02T09:46:20.078Z,92.92
2022-10-02T09:48:54.783Z,92.93
2022-10-02T09:51:29.582Z,92.92
2022-10-02T09:54:15.538Z,92.90
2022-10-02T09:57:01.162Z,92.71
2022-10-02T09:59:27.705Z,92.43
2022-10-02T10:02:00.944Z,92.32
2022-10-02T10:05:04.609Z,92.29
2022-10-02T10:07:47.866Z,92.23
2022-10-02T10:10:38.266Z,92.27
2022-10-02T10:13:16.557Z,92.25
2022-10-02T10:15:46.472Z,92.21
2022-10-02T10:18:28.268Z,92.23
2022-10-02T10:21:14.905Z,92.31
2022-10-02T10:24:00.767Z,92.55
2022-10-02T10:26:45.298Z,92.22
2022-10-02T10:29:12.136Z,92.42
2022-10-02T10:31:41.799Z,92.26
2022-10-02T10:34:27.148Z,92.10
2022-10-02T10:37:15.715Z,92.01
2022-10-02T10:40:01.144Z,91.76
2022-10-02T10:43:03.373Z,91.66
2022-10-02T10:45:31.343Z,91.52
2022-10-02T10:48:10.301Z,91.46
2022-10-02T10:50:39.622Z,91.41
2022-10-02T10:53:06.465Z,91.27
2022-10-02T10:55:40.029Z,91.04
2022-10-02T10:58:38.850Z,90.93
2022-10-02T11:01:17.388Z,90.63
2022-10-02T11:04:01.221Z,90.23
2022-10-02T11:06:27.793Z,90.58
2022-10-02T11:09:04.786Z,90.88
2022-10-02T11:11:37.299Z,90.70
2022-10-02T11:14:05.618Z,90.96
2022-10-02T11:16:50.777Z,90.87
2022-10-02T11:19:27.677Z,90.78
2022-10-02T11:22:13.175Z,90.61
2022-10-02T11:24:50.408Z,90.77
2022-10-02T11:27:20.021Z,90.62
2022-10-02T11:29:51.127Z,90.63
2022-10-02T11:32:45.279Z,90.54
2022-10-02T11:35:12.095Z,90.22
2022-10-02T11:37:50.707Z,90.09
2022-10-02T11:40:20.627Z,90.04
2022-10-02T11:42:47.710Z,89.95
2022-10-02T11:45:14.191Z,90.11
2022-10-02T11:47:56.650Z,89.81
2022-10-02T11:50:29.519Z,89.76
2022-10-02T11:53:16.127Z,89.85
2022-10-02T11:55:43.782Z,89.80
2022-10-02T11:58:16.507Z,89.52
2022-10-02T12:01:05.680Z,89.50
2022-10-02T12:04:10.995Z,89.51
2022-10-02T12:06:50.046Z,89.26
2022-10-02T12:09:22.415Z,89.06
2022-10-02T12:12:07.604Z,89.04
2022-10-02T12:15:03.907Z,88.90
2022-10-02T12:17:33.327Z,88.89
2022-10-02T12:20:31.303Z,88.71
2022-10-02T12:23:23.131Z,88.84
2022-10-02T12:26:29.611Z,88.72
2022-10-02T12:29:14.642Z,88.72
2022-10-02T12:31:51.483Z,88.95
2022-10-02T12:34:31.508Z,88.88
2022-10-02T12:37:19.493Z,89.04
2022-10-02T12:39:45.978Z,88.91
2022-10-02T12:42:13.823Z,88.94
2022-10-02T12:44:46.213Z,88.84
2022-10-02T12:47:19.389Z,88.55
2022-10-02T12:49:46.969Z,88.56
2022-10-02T12:52:13.941Z,88.48
2022-10-02T12:54:55.769Z,88.16
2022-10-02T12:57:44.584Z,88.23
2022-10-02T13:00:22.479Z,88.09
2022-10-02T13:03:00.740Z,88.01
2022-10-02T13:05:38.477Z,87.66
2022-10-02T13:08:16.146Z,87.46
2022-10-02T13:10:57.364Z,87.34
2022-10-02T13:13:31.808Z,86.88
2022-10-02T13:16:20.440Z,85.79
2022-10-02T13:19:02.409Z,85.92
2022-10-02T13:21:35.805Z,85.91
2022-10-02T13:24:21.537Z,85.56
2022-10-02T13:27:18.544Z,85.29
2022-10-02T13:29:45.395Z,85.38
2022-10-02T13:32:31.617Z,85.14
2022-10-02T13:34:58.391Z,85.26
2022-10-02T13:37:32.904Z,84.97
2022-10-02T13:40:02.923Z,85.12
2022-10-02T13:42:29.445Z,84.39
2022-10-02T13:45:18.437Z,84.29
2022-10-02T13:47:51.169Z,83.87
2022-10-02T13:50:25.721Z,83.78
2022-10-02T13:53:19.798Z,83.34
2022-10-02T13:55:55.163Z,83.25
2022-10-02T13:58:25.203Z,83.31
2022-10-02T14:01:02.947Z,82.91
2022-10-02T14:03:48.845Z,82.46
2022-10-02T14:06:29.168Z,82.65
2022-10-02T14:09:14.912Z,83.00
2022-10-02T14:11:47.277Z,82.97
2022-10-02T14:14:28.370Z,82.71
2022-10-02T14:17:13.762Z,82.96
2022-10-02T14:20:03.443Z,83.13
2022-10-02T14:22:29.922Z,83.55
2022-10-02T14:25:15.735Z,83.71
2022-10-02T14:27:54.525Z,83.83
2022-10-02T14:30:22.890Z,83.92
2022-10-02T14:32:49.490Z,84.16
2022-10-02T14:35:35.633Z,84.21
2022-10-02T14:38:20.640Z,84.37
2022-10-02T14:40:52.483Z,84.47
2022-10-02T14:43:33.485Z,84.51
2022-10-02T14:46:00.283Z,84.58
2022-10-02T14:48:33.349Z,84.73
2022-10-02T14:51:08.915Z,84.96
2022-10-02T14:53:45.114Z,85.09
2022-10-02T14:56:30.553Z,85.24
2022-10-02T14:58:57.538Z,85.42
2022-10-02T15:01:26.477Z,85.62
2022-10-02T15:04:13.624Z,85.77
2022-10-02T15:06:59.282Z,85.81
2022-10-02T15:09:25.855Z,85.97
2022-10-02T15:12:22.277Z,86.01
2022-10-02T15:14:56.955Z,86.04
2022-10-02T15:17:53.264Z,86.07
2022-10-02T15:20:38.487Z,86.05
2022-10-02T15:23:09.333Z,86.14
2022-10-02T15:25:54.226Z,86.07
2022-10-02T15:28:42.059Z,86.10
2022-10-02T15:31:17.260Z,86.03
2022-10-02T15:34:09.790Z,85.94
2022-10-02T15:36:45.984Z,85.95
2022-10-02T15:39:23.485Z,86.00
2022-10-02T15:42:03.019Z,85.98
2022-10-02T15:45:02.511Z,85.96
2022-10-02T15:47:40.050Z,86.00
2022-10-02T15:50:19.118Z,85.98
2022-10-02T15:52:57.826Z,85.81
2022-10-02T15:55:41.567Z,85.87
2022-10-02T15:58:17.005Z,85.75
2022-10-02T16:01:02.405Z,85.72
2022-10-02T16:03:41.754Z,85.65
2022-10-02T16:06:23.571Z,85.71
2022-10-02T16:09:17.648Z,85.73
2022-10-02T16:12:10.523Z,85.58
2022-10-02T16:14:40.026Z,85.62
2022-10-02T16:17:13.628Z,85.48
2022-10-02T16:19:46.407Z,85.57
2022-10-02T16:22:31.638Z,85.58
2022-10-02T16:25:10.753Z,85.41
2022-10-02T16:27:48.781Z,85.50
2022-10-02T16:30:16.890Z,85.43
2022-10-02T16:32:43.410Z,85.46
2022-10-02T16:35:28.830Z,85.51
2022-10-02T16:37:59.914Z,85.28
2022-10-02T16:40:36.375Z,85.08
2022-10-02T16:43:21.887Z,85.19
2022-10-02T16:46:07.226Z,85.11
2022-10-02T16:49:03.651Z,85.08
2022-10-02T16:51:30.133Z,84.92
2022-10-02T16:54:09.295Z,84.96
2022-10-02T16:56:54.317Z,84.95
2022-10-02T16:59:26.762Z,85.04
2022-10-02T17:02:16.345Z,84.90
2022-10-02T17:04:51.352Z,84.74
2022-10-02T17:07:25.090Z,84.63
2022-10-02T17:09:55.131Z,84.55
2022-10-02T17:12:27.823Z,84.63
2022-10-02T17:15:02.765Z,84.33
2022-10-02T17:17:48.596Z,84.37
2022-10-02T17:20:16.648Z,84.32
2022-10-02T17:22:50.920Z,84.36
2022-10-02T17:25:27.276Z,84.42
2022-10-02T17:28:02.973Z,84.34
2022-10-02T17:30:43.388Z,84.37
2022-10-02T17:33:13.248Z,84.34
2022-10-02T17:35:46.156Z,84.34
2022-10-02T17:38:24.189Z,84.37
2022-10-02T17:41:06.581Z,84.46
2022-10-02T17:43:42.169Z,84.25
2022-10-02T17:46:21.459Z,84.35
2022-10-02T17:48:53.578Z,84.46
2022-10-02T17:51:51.254Z,84.43
2022-10-02T17:54:28.570Z,84.62
2022-10-02T17:57:20.519Z,84.58
2022-10-02T18:00:04.921Z,84.68
2022-10-02T18:02:50.559Z,84.61
2022-10-02T18:05:38.185Z,84.73
2022-10-02T18:08:13.538Z,84.68
2022-10-02T18:10:40.383Z,84.73
2022-10-02T18:13:14.772Z,84.86
2022-10-02T18:15:56.401Z,84.94
2022-10-02T18:18:32.532Z,85.02
2022-10-02T18:21:03.640Z,85.11
2022-10-02T18:23:30.168Z,85.13
2022-10-02T18:26:18.919Z,85.06
2022-10-02T18:28:55.227Z,85.12
2022-10-02T18:31:54.820Z,85.17
2022-10-02T18:34:26.580Z,85.20
2022-10-02T18:37:13.595Z,85.28
2022-10-02T18:40:06.694Z,85.28
2022-10-02T18:42:40.008Z,85.36
2022-10-02T18:45:12.618Z,85.46
2022-10-02T18:47:57.898Z,85.52
2022-10-02T18:50:33.726Z,85.48
2022-10-02T18:53:18.944Z,85.52
2022-10-02T18:56:00.913Z,85.60
2022-10-02T18:58:42.730Z,85.68
2022-10-02T19:01:16.820Z,85.71
2022-10-02T19:03:55.710Z,85.79
2022-10-02T19:06:41.625Z,85.75
2022-10-02T19:09:08.204Z,85.81
2022-10-02T19:11:41.905Z,85.88
2022-10-02T19:14:16.113Z,85.99
2022-10-02T19:16:57.128Z,86.07
2022-10-02T19:19:24.508Z,86.18
2022-10-02T19:21:57.232Z,86.20
2022-10-02T19:24:28.639Z,86.22
2022-10-02T19:26:57.254Z,86.26
2022-10-02T19:29:30.562Z,86.29
2022-10-02T19:31:58.648Z,86.29
2022-10-02T19:34:27.791Z,86.33
2022-10-02T19:36:57.154Z,86.39
2022-10-02T19:39:35.720Z,86.40
2022-10-02T19:42:06.949Z,86.43
2022-10-02T19:44:44.921Z,86.36
2022-10-02T19:47:37.744Z,86.41
2022-10-02T19:50:06.193Z,86.46
2022-10-02T19:52:37.763Z,86.51
2022-10-02T19:55:17.052Z,86.48
2022-10-02T19:57:45.129Z,86.61
2022-10-02T20:00:16.994Z,86.53
2022-10-02T20:02:47.862Z,86.50
2022-10-02T20:05:20.651Z,86.55
2022-10-02T20:07:48.579Z,86.58
2022-10-02T20:10:17.177Z,86.65
2022-10-02T20:12:48.966Z,86.71
2022-10-02T20:15:39.801Z,86.80
2022-10-02T20:18:07.063Z,86.75
2022-10-02T20:20:35.989Z,86.77
2022-10-02T20:23:05.373Z,86.95
2022-10-02T20:25:36.021Z,86.80
2022-10-02T20:28:06.086Z,86.81
2022-10-02T20:30:38.238Z,86.95
2022-10-02T20:33:10.994Z,86.94
2022-10-02T20:35:44.974Z,86.86
2022-10-02T20:38:18.383Z,86.93
2022-10-02T20:40:48.029Z,86.94
2022-10-02T20:43:18.843Z,86.96
2022-10-02T20:45:53.950Z,87.01
2022-10-02T20:48:25.867Z,87.00
2022-10-02T20:50:59.864Z,86.94
2022-10-02T20:53:26.623Z,87.01
2022-10-02T20:56:28.946Z,87.08
2022-10-02T20:59:07.544Z,87.11
2022-10-02T21:01:40.890Z,87.15
2022-10-02T21:04:26.608Z,87.23
2022-10-02T21:06:53.257Z,87.23
2022-10-02T21:09:38.990Z,87.24
2022-10-02T21:12:28.632Z,87.30
2022-10-02T21:15:01.286Z,87.25
2022-10-02T21:17:49.231Z,87.27
2022-10-02T21:20:27.823Z,87.21
2022-10-02T21:23:11.489Z,87.31
2022-10-02T21:26:01.838Z,87.24
2022-10-02T21:28:48.994Z,87.24
2022-10-02T21:31:29.949Z,87.29
2022-10-02T21:34:07.657Z,87.34
2022-10-02T21:36:45.619Z,87.35
2022-10-02T21:39:15.435Z,87.35
2022-10-02T21:41:44.189Z,87.40
2022-10-02T21:44:10.863Z,87.46
2022-10-02T21:46:41.289Z,87.50
2022-10-02T21:49:25.141Z,87.52
2022-10-02T21:52:00.958Z,87.60
2022-10-02T21:54:46.645Z,87.67
2022-10-02T21:57:16.101Z,87.57
2022-10-02T22:00:03.648Z,87.68
2022-10-02T22:02:53.331Z,87.78
2022-10-02T22:05:26.437Z,87.67
2022-10-02T22:08:05.617Z,87.78
2022-10-02T22:10:48.201Z,87.66
2022-10-02T22:13:27.437Z,87.75
2022-10-02T22:16:14.894Z,87.86
2022-10-02T22:18:47.463Z,87.91
2022-10-02T22:21:14.228Z,87.92
2022-10-02T22:23:54.627Z,87.91
2022-10-02T22:26:31.148Z,87.98
2022-10-02T22:29:21.019Z,87.93
2022-10-02T22:32:36.193Z,88.08
2022-10-02T22:35:19.732Z,88.21
2022-10-02T22:37:49.432Z,88.16
2022-10-02T22:40:23.319Z,88.14
2022-10-02T22:42:54.615Z,88.27
2022-10-02T22:45:21.138Z,88.25
2022-10-02T22:48:01.073Z,88.41
2022-10-02T22:50:34.332Z,88.43
2022-10-02T22:53:21.084Z,88.48
2022-10-02T22:55:55.347Z,88.42
2022-10-02T22:58:30.307Z,88.54
2022-10-02T23:00:57.299Z,88.44
2022-10-02T23:03:29.873Z,88.46
2022-10-02T23:06:02.243Z,88.56
2022-10-02T23:08:31.548Z,88.50
2022-10-02T23:11:04.691Z,88.50
2022-10-02T23:13:35.421Z,88.55
2022-10-02T23:16:05.121Z,88.55
2022-10-02T23:18:34.655Z,88.59
2022-10-02T23:21:13.344Z,88.61
2022-10-02T23:23:50.845Z,88.65
2022-10-02T23:26:26.662Z,88.53
2022-10-02T23:29:07.118Z,88.62
2022-10-02T23:31:37.652Z,88.62
2022-10-02T23:34:17.471Z,88.63
2022-10-02T23:36:47.463Z,88.67
2022-10-02T23:39:14.286Z,88.62
2022-10-02T23:41:49.311Z,88.73
2022-10-02T23:44:19.265Z,88.73
2022-10-02T23:46:48.951Z,88.80
2022-10-02T23:49:21.733Z,88.73
2022-10-02T23:52:06.740Z,88.70
2022-10-02T23:54:48.942Z,88.57
2022-10-02T23:57:34.323Z,88.65
